sensor_id;sensor_type;location;lat;lon;timestamp;temperature;humidity
22984;DHT22;11658;48.908;9.140;2024-01-06T05:01:10;4.40;99.90
22984;DHT22;11658;48.908;9.140;2024-01-06T05:03:35;4.40;99.90
22984;DHT22;11658;48.908;9.140;2024-01-06T05:06:01;4.40;99.90
22984;DHT22;11658;48.908;9.140;2024-01-06T05:08:27;4.40;99.90
22984;DHT22;11658;48.908;9.140;2024-01-06T05:10:53;4.40;99.90
22984;DHT22;11658;48.908;9.140;2024-01-06T05:13:21;4.40;99.90
22984;DHT22;11658;48.908;9.140;2024-01-06T05:15:47;4.70;99.90
22984;DHT22;11658;48.908;9.140;2024-01-06T05:18:12;4.30;99.90
22984;DHT22;11658;48.908;9.140;2024-01-06T05:20:38;4.30;99.90
22984;DHT22;11658;48.908;9.140;2024-01-06T05:23:06;4.30;99.90
22984;DHT22;11658;48.908;9.140;2024-01-06T05:25:32;4.30;99.90
22984;DHT22;11658;48.908;9.140;2024-01-06T05:27:57;4.30;99.90
22984;DHT22;11658;48.908;9.140;2024-01-06T05:30:23;4.30;99.90
22984;DHT22;11658;48.908;9.140;2024-01-06T05:32:48;4.30;99.90
22984;DHT22;11658;48.908;9.140;2024-01-06T05:35:16;4.30;99.90
22984;DHT22;11658;48.908;9.140;2024-01-06T05:37:42;4.20;99.90
22984;DHT22;11658;48.908;9.140;2024-01-06T05:40:08;4.30;99.90
22984;DHT22;11658;48.908;9.140;2024-01-06T05:42:34;4.30;99.90
22984;DHT22;11658;48.908;9.140;2024-01-06T05:44:59;4.20;99.90
22984;DHT22;11658;48.908;9.140;2024-01-06T05:47:25;4.30;99.90
22984;DHT22;11658;48.908;9.140;2024-01-06T05:49:50;4.20;99.90
22984;DHT22;11658;48.908;9.140;2024-01-06T05:52:16;4.20;99.90
22984;DHT22;11658;48.908;9.140;2024-01-06T05:54:42;4.20;99.90
22984;DHT22;11658;48.908;9.140;2024-01-06T05:57:10;4.20;99.90
22984;DHT22;11658;48.908;9.140;2024-01-06T05:59:36;4.20;99.90
22984;DHT22;11658;48.908;9.140;2024-01-06T06:02:01;4.10;99.90
22984;DHT22;11658;48.908;9.140;2024-01-06T06:04:27;4.10;99.90
22984;DHT22;11658;48.908;9.140;2024-01-06T06:06:53;4.20;99.90
22984;DHT22;11658;48.908;9.140;2024-01-06T06:09:19;4.20;99.90
22984;DHT22;11658;48.908;9.140;2024-01-06T06:11:46;4.20;99.90
22984;DHT22;11658;48.908;9.140;2024-01-06T06:14:11;4.20;99.90
22984;DHT22;11658;48.908;9.140;2024-01-06T06:16:38;4.10;99.90
22984;DHT22;11658;48.908;9.140;2024-01-06T06:19:03;4.10;99.90
22984;DHT22;11658;48.908;9.140;2024-01-06T06:21:29;4.00;99.90
22984;DHT22;11658;48.908;9.140;2024-01-06T06:23:55;4.00;99.90
22984;DHT22;11658;48.908;9.140;2024-01-06T06:26:20;4.00;99.90
22984;DHT22;11658;48.908;9.140;2024-01-06T06:28:46;4.00;99.90
22984;DHT22;11658;48.908;9.140;2024-01-06T06:31:12;4.10;99.90
22984;DHT22;11658;48.908;9.140;2024-01-06T06:33:37;4.10;99.90
22984;DHT22;11658;48.908;9.140;2024-01-06T06:36:03;4.10;99.90
22984;DHT22;11658;48.908;9.140;2024-01-06T06:38:29;4.10;99.90
22984;DHT22;11658;48.908;9.140;2024-01-06T06:40:55;4.20;99.90
22984;DHT22;11658;48.908;9.140;2024-01-06T06:43:21;4.20;99.90
22984;DHT22;11658;48.908;9.140;2024-01-06T06:45:47;4.30;99.90
22984;DHT22;11658;48.908;9.140;2024-01-06T06:48:12;4.30;99.90
22984;DHT22;11658;48.908;9.140;2024-01-06T06:50:38;4.40;99.90
22984;DHT22;11658;48.908;9.140;2024-01-06T06:53:04;4.30;99.90
22984;DHT22;11658;48.908;9.140;2024-01-06T06:55:29;4.40;99.90
22984;DHT22;11658;48.908;9.140;2024-01-06T06:57:55;4.40;99.90
22984;DHT22;11658;48.908;9.140;2024-01-06T07:00:20;4.40;99.90
22984;DHT22;11658;48.908;9.140;2024-01-06T07:02:46;4.40;99.90
22984;DHT22;11658;48.908;9.140;2024-01-06T07:05:12;4.50;99.90
22984;DHT22;11658;48.908;9.140;2024-01-06T07:07:37;4.50;99.90
22984;DHT22;11658;48.908;9.140;2024-01-06T07:10:04;4.50;99.90
22984;DHT22;11658;48.908;9.140;2024-01-06T07:12:31;4.50;99.90
22984;DHT22;11658;48.908;9.140;2024-01-06T07:14:57;4.50;99.90
22984;DHT22;11658;48.908;9.140;2024-01-06T07:17:24;4.50;99.90
22984;DHT22;11658;48.908;9.140;2024-01-06T07:19:50;4.50;99.90
22984;DHT22;11658;48.908;9.140;2024-01-06T07:22:15;4.50;99.90
22984;DHT22;11658;48.908;9.140;2024-01-06T07:24:42;4.50;99.90
22984;DHT22;11658;48.908;9.140;2024-01-06T07:27:07;4.50;99.90
22984;DHT22;11658;48.908;9.140;2024-01-06T07:29:33;4.50;99.90
22984;DHT22;11658;48.908;9.140;2024-01-06T07:31:58;4.50;99.90
22984;DHT22;11658;48.908;9.140;2024-01-06T07:34:24;4.50;99.90
22984;DHT22;11658;48.908;9.140;2024-01-06T07:36:50;4.50;99.90
22984;DHT22;11658;48.908;9.140;2024-01-06T07:39:16;4.60;99.90
22984;DHT22;11658;48.908;9.140;2024-01-06T07:41:42;4.60;99.90
22984;DHT22;11658;48.908;9.140;2024-01-06T07:44:08;4.70;99.90
22984;DHT22;11658;48.908;9.140;2024-01-06T07:46:33;4.80;99.90
22984;DHT22;11658;48.908;9.140;2024-01-06T07:49:00;4.80;99.90
22984;DHT22;11658;48.908;9.140;2024-01-06T07:51:26;4.90;99.90
22984;DHT22;11658;48.908;9.140;2024-01-06T07:53:51;4.80;99.90
22984;DHT22;11658;48.908;9.140;2024-01-06T07:56:17;4.80;99.90
22984;DHT22;11658;48.908;9.140;2024-01-06T07:58:43;4.90;99.90
22984;DHT22;11658;48.908;9.140;2024-01-06T08:01:09;4.90;99.90
22984;DHT22;11658;48.908;9.140;2024-01-06T08:03:34;5.00;99.90
22984;DHT22;11658;48.908;9.140;2024-01-06T08:06:00;4.90;99.90
22984;DHT22;11658;48.908;9.140;2024-01-06T08:08:26;5.00;99.90
22984;DHT22;11658;48.908;9.140;2024-01-06T08:10:52;5.00;99.90
22984;DHT22;11658;48.908;9.140;2024-01-06T08:13:17;5.00;99.90
22984;DHT22;11658;48.908;9.140;2024-01-06T08:15:43;5.00;99.90
22984;DHT22;11658;48.908;9.140;2024-01-06T08:18:09;5.00;99.90
22984;DHT22;11658;48.908;9.140;2024-01-06T08:20:34;5.20;99.90
22984;DHT22;11658;48.908;9.140;2024-01-06T08:23:00;5.20;99.90
22984;DHT22;11658;48.908;9.140;2024-01-06T08:25:25;5.20;99.90
22984;DHT22;11658;48.908;9.140;2024-01-06T08:27:51;5.20;99.90
22984;DHT22;11658;48.908;9.140;2024-01-06T08:30:16;5.20;99.90
22984;DHT22;11658;48.908;9.140;2024-01-06T08:32:42;5.20;99.90
22984;DHT22;11658;48.908;9.140;2024-01-06T08:35:09;5.10;99.90
22984;DHT22;11658;48.908;9.140;2024-01-06T08:37:34;5.10;99.90
22984;DHT22;11658;48.908;9.140;2024-01-06T08:40:00;5.00;99.90
22984;DHT22;11658;48.908;9.140;2024-01-06T08:42:25;5.00;99.90
22984;DHT22;11658;48.908;9.140;2024-01-06T08:44:51;5.00;99.90
22984;DHT22;11658;48.908;9.140;2024-01-06T08:47:17;5.00;99.90
22984;DHT22;11658;48.908;9.140;2024-01-06T08:49:42;5.10;99.90
22984;DHT22;11658;48.908;9.140;2024-01-06T08:52:08;5.10;99.90
22984;DHT22;11658;48.908;9.140;2024-01-06T08:54:34;5.10;99.90
22984;DHT22;11658;48.908;9.140;2024-01-06T08:57:00;5.10;99.90
22984;DHT22;11658;48.908;9.140;2024-01-06T08:59:26;5.10;99.90
22984;DHT22;11658;48.908;9.140;2024-01-06T09:01:51;5.10;99.90
22984;DHT22;11658;48.908;9.140;2024-01-06T09:04:18;5.10;99.90
22984;DHT22;11658;48.908;9.140;2024-01-06T09:06:44;5.10;99.90
22984;DHT22;11658;48.908;9.140;2024-01-06T09:09:12;5.20;99.90
22984;DHT22;11658;48.908;9.140;2024-01-06T09:11:37;5.20;99.90
22984;DHT22;11658;48.908;9.140;2024-01-06T09:14:03;5.30;99.90
22984;DHT22;11658;48.908;9.140;2024-01-06T09:16:29;5.40;99.90
22984;DHT22;11658;48.908;9.140;2024-01-06T09:18:54;5.40;99.90
22984;DHT22;11658;48.908;9.140;2024-01-06T09:21:20;5.40;99.90
22984;DHT22;11658;48.908;9.140;2024-01-06T09:23:45;5.50;99.90
22984;DHT22;11658;48.908;9.140;2024-01-06T09:26:11;5.60;99.90
22984;DHT22;11658;48.908;9.140;2024-01-06T09:28:37;5.60;99.90
22984;DHT22;11658;48.908;9.140;2024-01-06T09:31:02;5.50;99.90
22984;DHT22;11658;48.908;9.140;2024-01-06T09:33:29;5.40;99.90
22984;DHT22;11658;48.908;9.140;2024-01-06T09:35:55;5.50;99.90
22984;DHT22;11658;48.908;9.140;2024-01-06T09:38:21;5.40;99.90
22984;DHT22;11658;48.908;9.140;2024-01-06T09:40:48;5.30;99.90
22984;DHT22;11658;48.908;9.140;2024-01-06T09:43:14;5.20;99.90
22984;DHT22;11658;48.908;9.140;2024-01-06T09:45:40;5.10;99.90
22984;DHT22;11658;48.908;9.140;2024-01-06T09:48:11;5.20;99.90
22984;DHT22;11658;48.908;9.140;2024-01-06T09:50:41;5.20;99.90
22984;DHT22;11658;48.908;9.140;2024-01-06T09:53:10;5.10;99.90
22984;DHT22;11658;48.908;9.140;2024-01-06T09:55:36;5.10;99.90
22984;DHT22;11658;48.908;9.140;2024-01-06T09:58:02;5.20;99.90
22984;DHT22;11658;48.908;9.140;2024-01-06T10:00:28;5.30;99.90
22984;DHT22;11658;48.908;9.140;2024-01-06T10:02:54;5.30;99.90
22984;DHT22;11658;48.908;9.140;2024-01-06T10:05:20;5.30;99.90
22984;DHT22;11658;48.908;9.140;2024-01-06T10:07:47;5.50;99.90
22984;DHT22;11658;48.908;9.140;2024-01-06T10:10:13;5.50;99.90
22984;DHT22;11658;48.908;9.140;2024-01-06T10:12:40;5.40;99.90
22984;DHT22;11658;48.908;9.140;2024-01-06T10:15:10;5.40;99.90
22984;DHT22;11658;48.908;9.140;2024-01-06T10:17:40;5.50;99.90
22984;DHT22;11658;48.908;9.140;2024-01-06T10:20:10;5.40;99.90
22984;DHT22;11658;48.908;9.140;2024-01-06T10:22:37;5.40;99.90
22984;DHT22;11658;48.908;9.140;2024-01-06T10:25:07;5.60;99.90
22984;DHT22;11658;48.908;9.140;2024-01-06T10:27:37;5.50;99.90
22984;DHT22;11658;48.908;9.140;2024-01-06T10:30:04;5.40;99.90
22984;DHT22;11658;48.908;9.140;2024-01-06T10:32:33;5.60;99.90
22984;DHT22;11658;48.908;9.140;2024-01-06T10:35:00;5.80;99.90
22984;DHT22;11658;48.908;9.140;2024-01-06T10:37:27;5.30;99.90
22984;DHT22;11658;48.908;9.140;2024-01-06T10:40:10;5.60;99.90
22984;DHT22;11658;48.908;9.140;2024-01-06T10:42:37;5.50;99.90
22984;DHT22;11658;48.908;9.140;2024-01-06T10:45:06;5.60;99.90
22984;DHT22;11658;48.908;9.140;2024-01-06T10:47:34;5.60;99.90
22984;DHT22;11658;48.908;9.140;2024-01-06T10:50:00;5.60;99.90
22984;DHT22;11658;48.908;9.140;2024-01-06T10:52:27;5.60;99.90
22984;DHT22;11658;48.908;9.140;2024-01-06T10:54:54;5.60;99.90
22984;DHT22;11658;48.908;9.140;2024-01-06T10:57:21;5.50;99.90
22984;DHT22;11658;48.908;9.140;2024-01-06T10:59:49;5.50;99.90
22984;DHT22;11658;48.908;9.140;2024-01-06T11:02:15;5.50;99.90
22984;DHT22;11658;48.908;9.140;2024-01-06T11:04:44;5.50;99.90
22984;DHT22;11658;48.908;9.140;2024-01-06T11:07:11;5.40;99.90
22984;DHT22;11658;48.908;9.140;2024-01-06T11:09:39;5.40;99.90
22984;DHT22;11658;48.908;9.140;2024-01-06T11:12:06;5.50;99.90
22984;DHT22;11658;48.908;9.140;2024-01-06T11:14:38;5.50;99.90
22984;DHT22;11658;48.908;9.140;2024-01-06T11:17:03;5.40;99.90
22984;DHT22;11658;48.908;9.140;2024-01-06T11:24:49;5.60;99.90
22984;DHT22;11658;48.908;9.140;2024-01-06T11:27:28;5.50;99.90
22984;DHT22;11658;48.908;9.140;2024-01-06T11:29:57;5.40;99.90
22984;DHT22;11658;48.908;9.140;2024-01-06T11:32:30;5.50;99.90
22984;DHT22;11658;48.908;9.140;2024-01-06T11:35:09;5.50;99.90
22984;DHT22;11658;48.908;9.140;2024-01-06T11:40:35;5.40;99.90
22984;DHT22;11658;48.908;9.140;2024-01-06T11:43:09;5.40;99.90
22984;DHT22;11658;48.908;9.140;2024-01-06T11:45:36;5.50;99.90
22984;DHT22;11658;48.908;9.140;2024-01-06T11:48:04;5.60;99.90
22984;DHT22;11658;48.908;9.140;2024-01-06T11:50:33;5.60;99.90
22984;DHT22;11658;48.908;9.140;2024-01-06T11:52:59;5.60;99.90
22984;DHT22;11658;48.908;9.140;2024-01-06T11:55:28;5.60;99.90
22984;DHT22;11658;48.908;9.140;2024-01-06T11:57:56;5.50;99.90
22984;DHT22;11658;48.908;9.140;2024-01-06T12:00:23;5.50;99.90
22984;DHT22;11658;48.908;9.140;2024-01-06T12:02:49;5.60;99.90
22984;DHT22;11658;48.908;9.140;2024-01-06T12:05:16;5.50;99.90
22984;DHT22;11658;48.908;9.140;2024-01-06T12:07:44;5.50;99.90
22984;DHT22;11658;48.908;9.140;2024-01-06T12:10:23;5.60;99.90
22984;DHT22;11658;48.908;9.140;2024-01-06T12:13:00;5.80;99.90
22984;DHT22;11658;48.908;9.140;2024-01-06T12:15:27;5.50;99.90
22984;DHT22;11658;48.908;9.140;2024-01-06T12:17:53;5.60;99.90
22984;DHT22;11658;48.908;9.140;2024-01-06T12:20:19;5.70;99.90
22984;DHT22;11658;48.908;9.140;2024-01-06T12:22:47;5.80;99.90
22984;DHT22;11658;48.908;9.140;2024-01-06T12:25:14;5.80;99.90
22984;DHT22;11658;48.908;9.140;2024-01-06T12:27:44;5.80;99.90
22984;DHT22;11658;48.908;9.140;2024-01-06T12:30:14;5.80;99.90
22984;DHT22;11658;48.908;9.140;2024-01-06T12:32:45;5.70;99.90
22984;DHT22;11658;48.908;9.140;2024-01-06T12:35:11;5.70;99.90
22984;DHT22;11658;48.908;9.140;2024-01-06T12:37:37;5.60;99.90
22984;DHT22;11658;48.908;9.140;2024-01-06T12:40:03;5.40;99.90
22984;DHT22;11658;48.908;9.140;2024-01-06T12:42:29;5.50;99.90
22984;DHT22;11658;48.908;9.140;2024-01-06T12:44:55;5.50;99.90
22984;DHT22;11658;48.908;9.140;2024-01-06T12:47:20;5.60;99.90
22984;DHT22;11658;48.908;9.140;2024-01-06T12:49:46;5.40;99.90
22984;DHT22;11658;48.908;9.140;2024-01-06T12:52:11;5.30;99.90
22984;DHT22;11658;48.908;9.140;2024-01-06T12:54:39;5.40;99.90
22984;DHT22;11658;48.908;9.140;2024-01-06T12:57:04;5.30;99.90
22984;DHT22;11658;48.908;9.140;2024-01-06T12:59:30;5.30;99.90
22984;DHT22;11658;48.908;9.140;2024-01-06T13:01:56;5.30;99.90
22984;DHT22;11658;48.908;9.140;2024-01-06T13:04:22;5.40;99.90
22984;DHT22;11658;48.908;9.140;2024-01-06T13:06:48;5.50;99.90
22984;DHT22;11658;48.908;9.140;2024-01-06T13:09:15;5.50;99.90
22984;DHT22;11658;48.908;9.140;2024-01-06T13:11:41;5.50;99.90
22984;DHT22;11658;48.908;9.140;2024-01-06T13:14:07;5.40;99.90
22984;DHT22;11658;48.908;9.140;2024-01-06T13:16:33;5.40;99.90
22984;DHT22;11658;48.908;9.140;2024-01-06T13:18:59;5.50;99.90
22984;DHT22;11658;48.908;9.140;2024-01-06T13:21:25;5.50;99.90
22984;DHT22;11658;48.908;9.140;2024-01-06T13:23:50;5.60;99.90
22984;DHT22;11658;48.908;9.140;2024-01-06T13:26:16;5.50;99.90
22984;DHT22;11658;48.908;9.140;2024-01-06T13:28:42;5.50;99.90
22984;DHT22;11658;48.908;9.140;2024-01-06T13:31:08;5.50;99.90
22984;DHT22;11658;48.908;9.140;2024-01-06T13:33:35;5.60;99.90
22984;DHT22;11658;48.908;9.140;2024-01-06T13:36:00;5.60;99.90
22984;DHT22;11658;48.908;9.140;2024-01-06T13:38:26;5.50;99.90
22984;DHT22;11658;48.908;9.140;2024-01-06T13:40:52;5.50;99.90
22984;DHT22;11658;48.908;9.140;2024-01-06T13:43:18;5.50;99.90
22984;DHT22;11658;48.908;9.140;2024-01-06T13:45:44;5.40;99.90
22984;DHT22;11658;48.908;9.140;2024-01-06T13:48:13;5.40;99.90
22984;DHT22;11658;48.908;9.140;2024-01-06T13:50:39;5.40;99.90
22984;DHT22;11658;48.908;9.140;2024-01-06T13:53:05;5.40;99.90
22984;DHT22;11658;48.908;9.140;2024-01-06T13:55:34;5.40;99.90
22984;DHT22;11658;48.908;9.140;2024-01-06T13:58:00;5.40;99.90
22984;DHT22;11658;48.908;9.140;2024-01-06T14:00:25;5.40;99.90
22984;DHT22;11658;48.908;9.140;2024-01-06T14:02:51;5.30;99.90
22984;DHT22;11658;48.908;9.140;2024-01-06T14:05:18;5.30;99.90
22984;DHT22;11658;48.908;9.140;2024-01-06T14:07:45;5.20;99.90
22984;DHT22;11658;48.908;9.140;2024-01-06T14:10:14;5.20;99.90
22984;DHT22;11658;48.908;9.140;2024-01-06T14:12:41;5.20;99.90
22984;DHT22;11658;48.908;9.140;2024-01-06T14:15:07;5.20;99.90
22984;DHT22;11658;48.908;9.140;2024-01-06T14:17:33;5.30;99.90
22984;DHT22;11658;48.908;9.140;2024-01-06T14:19:59;5.40;99.90
22984;DHT22;11658;48.908;9.140;2024-01-06T14:22:26;5.50;99.90
22984;DHT22;11658;48.908;9.140;2024-01-06T14:24:52;5.50;99.90
22984;DHT22;11658;48.908;9.140;2024-01-06T14:27:17;5.60;99.90
22984;DHT22;11658;48.908;9.140;2024-01-06T14:29:43;5.60;99.90
22984;DHT22;11658;48.908;9.140;2024-01-06T14:32:08;5.60;99.90
22984;DHT22;11658;48.908;9.140;2024-01-06T14:34:34;5.50;99.90
22984;DHT22;11658;48.908;9.140;2024-01-06T14:37:00;5.30;99.90
22984;DHT22;11658;48.908;9.140;2024-01-06T14:39:25;5.20;99.90
22984;DHT22;11658;48.908;9.140;2024-01-06T14:41:51;5.30;99.90
22984;DHT22;11658;48.908;9.140;2024-01-06T14:44:17;5.40;99.90
22984;DHT22;11658;48.908;9.140;2024-01-06T14:46:46;5.50;99.90
22984;DHT22;11658;48.908;9.140;2024-01-06T14:49:11;5.50;99.90
22984;DHT22;11658;48.908;9.140;2024-01-06T14:51:37;5.40;99.90
22984;DHT22;11658;48.908;9.140;2024-01-06T14:54:03;5.40;99.90
22984;DHT22;11658;48.908;9.140;2024-01-06T14:56:29;5.30;99.90
22984;DHT22;11658;48.908;9.140;2024-01-06T14:58:55;5.30;99.90
22984;DHT22;11658;48.908;9.140;2024-01-06T15:01:21;5.30;99.90
22984;DHT22;11658;48.908;9.140;2024-01-06T15:03:47;5.20;99.90
22984;DHT22;11658;48.908;9.140;2024-01-06T15:06:13;5.20;99.90
22984;DHT22;11658;48.908;9.140;2024-01-06T15:08:39;5.30;99.90
22984;DHT22;11658;48.908;9.140;2024-01-06T15:11:04;5.20;99.90
22984;DHT22;11658;48.908;9.140;2024-01-06T15:13:30;5.40;99.90
22984;DHT22;11658;48.908;9.140;2024-01-06T15:15:56;5.40;99.90
22984;DHT22;11658;48.908;9.140;2024-01-06T15:18:22;5.30;99.90
22984;DHT22;11658;48.908;9.140;2024-01-06T15:20:49;5.30;99.90
22984;DHT22;11658;48.908;9.140;2024-01-06T15:23:15;5.30;99.90
22984;DHT22;11658;48.908;9.140;2024-01-06T15:25:41;5.40;99.90
22984;DHT22;11658;48.908;9.140;2024-01-06T15:28:07;5.40;99.90
22984;DHT22;11658;48.908;9.140;2024-01-06T15:30:33;5.30;99.90
22984;DHT22;11658;48.908;9.140;2024-01-06T15:32:59;5.20;99.90
22984;DHT22;11658;48.908;9.140;2024-01-06T15:35:24;5.30;99.90
22984;DHT22;11658;48.908;9.140;2024-01-06T15:37:50;5.30;99.90
22984;DHT22;11658;48.908;9.140;2024-01-06T15:40:15;5.30;99.90
22984;DHT22;11658;48.908;9.140;2024-01-06T15:42:42;5.30;99.90
22984;DHT22;11658;48.908;9.140;2024-01-06T15:45:08;5.40;99.90
22984;DHT22;11658;48.908;9.140;2024-01-06T15:47:34;5.30;99.90
22984;DHT22;11658;48.908;9.140;2024-01-06T15:50:00;5.20;99.90
22984;DHT22;11658;48.908;9.140;2024-01-06T15:52:26;5.20;99.90
22984;DHT22;11658;48.908;9.140;2024-01-06T15:54:51;5.20;99.90
22984;DHT22;11658;48.908;9.140;2024-01-06T15:57:18;5.20;99.90
22984;DHT22;11658;48.908;9.140;2024-01-06T15:59:44;5.20;99.90
22984;DHT22;11658;48.908;9.140;2024-01-06T16:02:11;5.20;99.90
22984;DHT22;11658;48.908;9.140;2024-01-06T16:04:36;5.30;99.90
22984;DHT22;11658;48.908;9.140;2024-01-06T16:07:02;5.30;99.90
22984;DHT22;11658;48.908;9.140;2024-01-06T16:09:31;5.30;99.90
22984;DHT22;11658;48.908;9.140;2024-01-06T16:11:56;5.20;99.90
22984;DHT22;11658;48.908;9.140;2024-01-06T16:14:24;5.20;99.90
22984;DHT22;11658;48.908;9.140;2024-01-06T16:16:51;5.10;99.90
22984;DHT22;11658;48.908;9.140;2024-01-06T16:19:17;5.20;99.90
22984;DHT22;11658;48.908;9.140;2024-01-06T16:21:43;5.10;99.90
22984;DHT22;11658;48.908;9.140;2024-01-06T16:24:09;5.20;99.90
22984;DHT22;11658;48.908;9.140;2024-01-06T16:26:34;5.10;99.90
22984;DHT22;11658;48.908;9.140;2024-01-06T16:29:01;5.10;99.90
22984;DHT22;11658;48.908;9.140;2024-01-06T16:31:26;5.00;99.90
22984;DHT22;11658;48.908;9.140;2024-01-06T16:33:52;5.00;99.90
22984;DHT22;11658;48.908;9.140;2024-01-06T16:36:18;5.10;99.90
22984;DHT22;11658;48.908;9.140;2024-01-06T16:38:43;5.20;99.90
22984;DHT22;11658;48.908;9.140;2024-01-06T16:41:09;5.20;99.90
22984;DHT22;11658;48.908;9.140;2024-01-06T16:43:35;5.20;99.90
22984;DHT22;11658;48.908;9.140;2024-01-06T16:46:03;5.20;99.90
22984;DHT22;11658;48.908;9.140;2024-01-06T16:48:30;5.10;99.90
22984;DHT22;11658;48.908;9.140;2024-01-06T16:50:56;5.10;99.90
22984;DHT22;11658;48.908;9.140;2024-01-06T16:53:22;5.20;99.90
22984;DHT22;11658;48.908;9.140;2024-01-06T16:55:47;5.20;99.90
22984;DHT22;11658;48.908;9.140;2024-01-06T16:58:13;5.20;99.90
22984;DHT22;11658;48.908;9.140;2024-01-06T17:00:39;5.20;99.90
22984;DHT22;11658;48.908;9.140;2024-01-06T17:03:04;5.20;99.90
22984;DHT22;11658;48.908;9.140;2024-01-06T17:05:30;5.20;99.90
22984;DHT22;11658;48.908;9.140;2024-01-06T17:07:56;5.20;99.90
22984;DHT22;11658;48.908;9.140;2024-01-06T17:10:21;5.10;99.90
22984;DHT22;11658;48.908;9.140;2024-01-06T17:12:47;5.10;99.90
22984;DHT22;11658;48.908;9.140;2024-01-06T17:15:13;5.10;99.90
22984;DHT22;11658;48.908;9.140;2024-01-06T17:17:39;5.10;99.90
22984;DHT22;11658;48.908;9.140;2024-01-06T17:20:07;5.10;99.90
22984;DHT22;11658;48.908;9.140;2024-01-06T17:22:33;5.00;99.90
22984;DHT22;11658;48.908;9.140;2024-01-06T17:24:58;5.00;99.90
22984;DHT22;11658;48.908;9.140;2024-01-06T17:27:25;5.10;99.90
22984;DHT22;11658;48.908;9.140;2024-01-06T17:29:50;5.10;99.90
22984;DHT22;11658;48.908;9.140;2024-01-06T17:32:17;5.10;99.90
22984;DHT22;11658;48.908;9.140;2024-01-06T17:34:43;5.10;99.90
22984;DHT22;11658;48.908;9.140;2024-01-06T17:37:09;5.10;99.90
22984;DHT22;11658;48.908;9.140;2024-01-06T17:39:35;5.10;99.90
22984;DHT22;11658;48.908;9.140;2024-01-06T17:42:02;5.00;99.90
22984;DHT22;11658;48.908;9.140;2024-01-06T17:44:28;5.00;99.90
22984;DHT22;11658;48.908;9.140;2024-01-06T17:46:54;5.00;99.90
22984;DHT22;11658;48.908;9.140;2024-01-06T17:49:20;5.10;99.90
22984;DHT22;11658;48.908;9.140;2024-01-06T17:51:47;5.10;99.90
22984;DHT22;11658;48.908;9.140;2024-01-06T17:54:12;5.10;99.90
22984;DHT22;11658;48.908;9.140;2024-01-06T17:56:39;5.00;99.90
22984;DHT22;11658;48.908;9.140;2024-01-06T17:59:05;4.90;99.90
22984;DHT22;11658;48.908;9.140;2024-01-06T18:01:30;5.00;99.90
22984;DHT22;11658;48.908;9.140;2024-01-06T18:03:56;5.10;99.90
22984;DHT22;11658;48.908;9.140;2024-01-06T18:06:23;5.10;99.90
22984;DHT22;11658;48.908;9.140;2024-01-06T18:08:49;5.20;99.90
22984;DHT22;11658;48.908;9.140;2024-01-06T18:11:14;5.30;99.90
22984;DHT22;11658;48.908;9.140;2024-01-06T18:13:40;5.30;99.90
22984;DHT22;11658;48.908;9.140;2024-01-06T18:16:06;5.40;99.90
22984;DHT22;11658;48.908;9.140;2024-01-06T18:18:31;5.40;99.90
22984;DHT22;11658;48.908;9.140;2024-01-06T18:20:57;5.40;99.90
22984;DHT22;11658;48.908;9.140;2024-01-06T18:23:22;5.30;99.90
22984;DHT22;11658;48.908;9.140;2024-01-06T18:25:48;5.40;99.90
22984;DHT22;11658;48.908;9.140;2024-01-06T18:28:13;5.50;99.90
22984;DHT22;11658;48.908;9.140;2024-01-06T18:30:40;5.50;99.90
22984;DHT22;11658;48.908;9.140;2024-01-06T18:33:05;5.30;99.90
22984;DHT22;11658;48.908;9.140;2024-01-06T18:35:31;5.30;99.90
22984;DHT22;11658;48.908;9.140;2024-01-06T18:37:56;5.20;99.90
22984;DHT22;11658;48.908;9.140;2024-01-06T18:40:22;5.10;99.90
22984;DHT22;11658;48.908;9.140;2024-01-06T18:42:48;5.10;99.90
22984;DHT22;11658;48.908;9.140;2024-01-06T18:45:13;5.10;99.90
22984;DHT22;11658;48.908;9.140;2024-01-06T18:47:39;5.10;99.90
22984;DHT22;11658;48.908;9.140;2024-01-06T18:50:08;5.10;99.90
22984;DHT22;11658;48.908;9.140;2024-01-06T18:52:33;5.10;99.90
22984;DHT22;11658;48.908;9.140;2024-01-06T18:55:00;5.10;99.90
22984;DHT22;11658;48.908;9.140;2024-01-06T18:57:26;5.20;99.90
22984;DHT22;11658;48.908;9.140;2024-01-06T18:59:51;5.30;99.90
22984;DHT22;11658;48.908;9.140;2024-01-06T19:02:17;5.30;99.90
22984;DHT22;11658;48.908;9.140;2024-01-06T19:04:43;5.30;99.90
22984;DHT22;11658;48.908;9.140;2024-01-06T19:07:09;5.40;99.90
22984;DHT22;11658;48.908;9.140;2024-01-06T19:09:35;5.40;99.90
22984;DHT22;11658;48.908;9.140;2024-01-06T19:12:01;5.40;99.90
22984;DHT22;11658;48.908;9.140;2024-01-06T19:14:27;5.30;99.90
22984;DHT22;11658;48.908;9.140;2024-01-06T19:16:53;5.30;99.90
22984;DHT22;11658;48.908;9.140;2024-01-06T19:19:19;5.20;99.90
22984;DHT22;11658;48.908;9.140;2024-01-06T19:21:44;5.20;99.90
22984;DHT22;11658;48.908;9.140;2024-01-06T19:24:10;5.20;99.90
22984;DHT22;11658;48.908;9.140;2024-01-06T19:26:39;5.20;99.90
22984;DHT22;11658;48.908;9.140;2024-01-06T19:29:05;5.10;99.90
22984;DHT22;11658;48.908;9.140;2024-01-06T19:31:30;5.10;99.90
22984;DHT22;11658;48.908;9.140;2024-01-06T19:33:56;5.10;99.90
22984;DHT22;11658;48.908;9.140;2024-01-06T19:36:22;5.00;99.90
22984;DHT22;11658;48.908;9.140;2024-01-06T19:38:48;5.00;99.90
22984;DHT22;11658;48.908;9.140;2024-01-06T19:41:13;5.00;99.90
22984;DHT22;11658;48.908;9.140;2024-01-06T19:43:39;5.00;99.90
22984;DHT22;11658;48.908;9.140;2024-01-06T19:46:06;5.00;99.90
22984;DHT22;11658;48.908;9.140;2024-01-06T19:48:33;4.90;99.90
22984;DHT22;11658;48.908;9.140;2024-01-06T19:50:58;4.90;99.90
22984;DHT22;11658;48.908;9.140;2024-01-06T19:53:24;4.90;99.90
22984;DHT22;11658;48.908;9.140;2024-01-06T19:55:49;4.90;99.90
22984;DHT22;11658;48.908;9.140;2024-01-06T19:58:15;4.90;99.90
22984;DHT22;11658;48.908;9.140;2024-01-06T20:00:41;5.00;99.90
22984;DHT22;11658;48.908;9.140;2024-01-06T20:03:06;5.00;99.90
22984;DHT22;11658;48.908;9.140;2024-01-06T20:05:32;5.00;99.90
22984;DHT22;11658;48.908;9.140;2024-01-06T20:07:58;5.00;99.90
22984;DHT22;11658;48.908;9.140;2024-01-06T20:10:24;5.10;99.90
22984;DHT22;11658;48.908;9.140;2024-01-06T20:12:49;5.20;99.90
22984;DHT22;11658;48.908;9.140;2024-01-06T20:15:15;5.20;99.90
22984;DHT22;11658;48.908;9.140;2024-01-06T20:17:41;5.20;99.90
22984;DHT22;11658;48.908;9.140;2024-01-06T20:20:06;5.20;99.90
22984;DHT22;11658;48.908;9.140;2024-01-06T20:22:34;5.10;99.90
22984;DHT22;11658;48.908;9.140;2024-01-06T20:24:59;5.10;99.90
22984;DHT22;11658;48.908;9.140;2024-01-06T20:27:26;5.00;99.90
22984;DHT22;11658;48.908;9.140;2024-01-06T20:29:52;5.00;99.90
22984;DHT22;11658;48.908;9.140;2024-01-06T20:32:18;5.00;99.90
22984;DHT22;11658;48.908;9.140;2024-01-06T20:34:45;5.00;99.90
22984;DHT22;11658;48.908;9.140;2024-01-06T20:37:10;4.90;99.90
22984;DHT22;11658;48.908;9.140;2024-01-06T20:39:37;5.00;99.90
22984;DHT22;11658;48.908;9.140;2024-01-06T20:42:03;5.10;99.90
22984;DHT22;11658;48.908;9.140;2024-01-06T20:44:30;5.20;99.90
22984;DHT22;11658;48.908;9.140;2024-01-06T20:46:56;5.10;99.90